createdAt,value
2018-07-23T00:01:10.708Z,12.67
2018-07-23T00:03:39.016Z,11.83
2018-07-23T00:06:07.296Z,11.93
2018-07-23T00:08:35.567Z,11.97
2018-07-23T00:11:03.880Z,11.67
2018-07-23T00:13:31.890Z,11.73
2018-07-23T00:16:00.220Z,11.87
2018-07-23T00:18:28.485Z,12.20
2018-07-23T00:20:56.780Z,12.43
2018-07-23T00:23:25.068Z,11.93
2018-07-23T00:25:53.400Z,12.60
2018-07-23T00:28:21.692Z,12.40
2018-07-23T00:30:50.012Z,12.70
2018-07-23T00:33:18.300Z,12.37
2018-07-23T00:35:46.640Z,11.93
2018-07-23T00:38:14.902Z,12.80
2018-07-23T00:40:43.169Z,12.40
2018-07-23T00:43:11.472Z,12.50
2018-07-23T00:45:39.731Z,12.40
2018-07-23T00:48:08.852Z,12.60
2018-07-23T00:50:37.139Z,12.73
2018-07-23T00:53:05.456Z,13.00
2018-07-23T00:55:33.788Z,14.20
2018-07-23T00:58:02.088Z,13.50
2018-07-23T01:00:30.376Z,13.50
2018-07-23T01:03:02.894Z,12.90
2018-07-23T01:05:31.184Z,14.20
2018-07-23T01:07:59.461Z,13.43
2018-07-23T01:10:27.751Z,13.27
2018-07-23T01:12:56.040Z,13.20
2018-07-23T01:15:24.324Z,12.50
2018-07-23T01:17:52.609Z,13.27
2018-07-23T01:20:20.901Z,13.23
2018-07-23T01:22:49.175Z,14.83
2018-07-23T01:25:17.452Z,15.70
2018-07-23T01:27:45.750Z,16.63
2018-07-23T01:30:14.062Z,15.63
2018-07-23T01:32:42.348Z,15.50
2018-07-23T01:35:10.646Z,15.50
2018-07-23T01:37:38.660Z,15.37
2018-07-23T01:40:06.916Z,14.03
2018-07-23T01:42:35.231Z,15.07
2018-07-23T01:45:03.572Z,15.90
2018-07-23T01:47:31.600Z,15.30
2018-07-23T01:49:59.876Z,15.57
2018-07-23T01:52:27.864Z,16.20
2018-07-23T01:54:56.160Z,15.80
2018-07-23T01:57:24.444Z,15.60
2018-07-23T01:59:52.716Z,15.13
2018-07-23T02:02:21.068Z,16.70
2018-07-23T02:04:49.352Z,15.70
2018-07-23T02:07:17.636Z,15.20
2018-07-23T02:09:45.910Z,14.27
2018-07-23T02:12:14.181Z,15.37
2018-07-23T02:14:42.444Z,14.77
2018-07-23T02:17:10.451Z,15.37
2018-07-23T02:19:38.752Z,15.17
2018-07-23T02:22:07.058Z,15.13
2018-07-23T02:24:35.320Z,15.20
2018-07-23T02:27:03.585Z,14.70
2018-07-23T02:29:31.856Z,14.33
2018-07-23T02:32:00.144Z,14.50
2018-07-23T02:34:28.416Z,14.60
2018-07-23T02:36:56.706Z,15.30
2018-07-23T02:39:24.972Z,14.47
2018-07-23T02:41:53.244Z,15.90
2018-07-23T02:44:21.252Z,14.37
2018-07-23T02:46:49.538Z,14.27
2018-07-23T02:49:17.807Z,14.13
2018-07-23T02:51:46.102Z,14.30
2018-07-23T02:54:14.419Z,14.47
2018-07-23T02:56:42.706Z,13.63
2018-07-23T02:59:10.980Z,14.47
2018-07-23T03:01:39.258Z,13.37
2018-07-23T03:04:07.530Z,13.83
2018-07-23T03:06:35.545Z,14.23
2018-07-23T03:09:05.691Z,14.03
2018-07-23T03:11:34.239Z,13.50
2018-07-23T03:14:02.571Z,13.17
2018-07-23T03:16:30.864Z,13.70
2018-07-23T03:18:59.173Z,13.03
2018-07-23T03:21:27.450Z,13.20
2018-07-23T03:23:55.727Z,12.67
2018-07-23T03:26:24.021Z,13.17
2018-07-23T03:28:52.306Z,13.20
2018-07-23T03:31:20.582Z,12.80
2018-07-23T03:33:48.892Z,14.00
2018-07-23T03:36:17.154Z,13.33
2018-07-23T03:38:45.416Z,13.47
2018-07-23T03:41:13.692Z,14.07
2018-07-23T03:43:41.975Z,13.23
2018-07-23T03:46:10.243Z,13.57
2018-07-23T03:48:38.546Z,13.50
2018-07-23T03:51:07.489Z,13.97
2018-07-23T03:53:36.041Z,13.63
2018-07-23T03:56:04.027Z,15.03
2018-07-23T03:58:32.298Z,14.30
2018-07-23T04:01:00.594Z,13.93
2018-07-23T04:03:28.928Z,14.07
2018-07-23T04:05:57.156Z,13.93
2018-07-23T04:08:25.192Z,15.33
2018-07-23T04:10:53.585Z,14.87
2018-07-23T04:13:21.755Z,13.93
2018-07-23T04:15:50.057Z,14.20
2018-07-23T04:18:18.347Z,15.20
2018-07-23T04:20:46.650Z,14.30
2018-07-23T04:23:14.919Z,14.17
2018-07-23T04:25:43.254Z,14.20
2018-07-23T04:28:11.497Z,14.80
2018-07-23T04:30:39.811Z,14.50
2018-07-23T04:33:07.805Z,14.83
2018-07-23T04:35:36.105Z,14.70
2018-07-23T04:38:04.400Z,15.23
2018-07-23T04:40:32.672Z,14.17
2018-07-23T04:43:00.963Z,14.27
2018-07-23T04:45:29.251Z,13.30
2018-07-23T04:47:57.553Z,12.87
2018-07-23T04:50:25.862Z,13.33
2018-07-23T04:52:54.130Z,14.50
2018-07-23T04:55:22.425Z,15.00
2018-07-23T04:57:50.706Z,14.93
2018-07-23T05:00:18.727Z,13.70
2018-07-23T05:02:47.017Z,14.03
2018-07-23T05:05:15.302Z,13.67
2018-07-23T05:07:43.598Z,13.70
2018-07-23T05:10:11.875Z,14.00
2018-07-23T05:12:40.153Z,13.40
2018-07-23T05:15:08.456Z,12.93
2018-07-23T05:17:36.801Z,13.60
2018-07-23T05:20:05.094Z,13.70
2018-07-23T05:22:33.417Z,13.30
2018-07-23T05:25:01.690Z,12.87
2018-07-23T05:27:29.976Z,12.53
2018-07-23T05:29:58.265Z,12.90
2018-07-23T05:32:26.527Z,12.53
2018-07-23T05:34:54.819Z,13.63
2018-07-23T05:37:23.103Z,13.03
2018-07-23T05:39:51.399Z,12.37
2018-07-23T05:42:19.671Z,12.57
2018-07-23T05:44:47.977Z,12.73
2018-07-23T05:47:15.991Z,11.97
2018-07-23T05:49:44.277Z,12.33
2018-07-23T05:52:12.603Z,12.87
2018-07-23T05:54:40.902Z,11.70
2018-07-23T05:57:08.947Z,11.67
2018-07-23T05:59:37.282Z,11.63
2018-07-23T06:02:05.629Z,11.83
2018-07-23T06:04:33.919Z,11.50
2018-07-23T06:07:02.368Z,11.47
2018-07-23T06:09:30.549Z,12.17
2018-07-23T06:11:58.567Z,11.60
2018-07-23T06:14:26.855Z,11.37
2018-07-23T06:16:55.193Z,11.17
2018-07-23T06:19:23.221Z,10.43
2018-07-23T06:21:51.528Z,10.93
2018-07-23T06:24:19.908Z,10.80
2018-07-23T06:26:48.183Z,10.73
2018-07-23T06:29:16.535Z,10.80
2018-07-23T06:31:44.847Z,10.83
2018-07-23T06:34:13.171Z,10.93
2018-07-23T06:36:41.471Z,10.73
2018-07-23T06:39:10.933Z,10.67
2018-07-23T06:41:39.891Z,10.97
2018-07-23T06:44:08.360Z,10.53
2018-07-23T06:46:36.687Z,9.47
2018-07-23T06:49:05.371Z,9.80
2018-07-23T06:51:33.765Z,10.37
2018-07-23T06:54:02.090Z,9.17
2018-07-23T06:56:30.382Z,10.20
2018-07-23T06:58:58.723Z,9.40
2018-07-23T07:01:27.017Z,9.50
2018-07-23T07:03:55.432Z,9.40
2018-07-23T07:06:23.732Z,9.33
2018-07-23T07:08:51.996Z,8.40
2018-07-23T07:11:20.438Z,8.80
2018-07-23T07:13:48.728Z,8.97
2018-07-23T07:16:17.011Z,8.47
2018-07-23T07:18:45.290Z,9.13
2018-07-23T07:21:13.591Z,9.30
2018-07-23T07:23:41.861Z,10.10
2018-07-23T07:26:10.152Z,8.80
2018-07-23T07:28:38.452Z,9.43
2018-07-23T07:31:06.748Z,9.83
2018-07-23T07:33:35.015Z,9.30
2018-07-23T07:36:03.336Z,9.20
2018-07-23T07:38:31.339Z,9.80
2018-07-23T07:40:59.652Z,9.17
2018-07-23T07:43:27.951Z,9.97
2018-07-23T07:45:56.326Z,9.80
2018-07-23T07:48:24.628Z,9.40
2018-07-23T07:50:52.928Z,10.23
2018-07-23T07:53:21.232Z,9.37
2018-07-23T07:55:49.516Z,9.90
2018-07-23T07:58:17.816Z,10.30
2018-07-23T08:00:46.157Z,10.67
2018-07-23T08:03:14.442Z,9.70
2018-07-23T08:05:42.474Z,10.10
2018-07-23T08:08:10.742Z,9.70
2018-07-23T08:10:39.020Z,9.67
2018-07-23T08:13:07.324Z,10.20
2018-07-23T08:15:35.624Z,9.93
2018-07-23T08:18:03.929Z,11.53
2018-07-23T08:20:31.980Z,25.00
2018-07-23T08:23:00.472Z,11.90
2018-07-23T08:25:28.764Z,10.30
2018-07-23T08:27:57.140Z,9.77
2018-07-23T08:30:25.735Z,10.17
2018-07-23T08:32:54.053Z,9.90
2018-07-23T08:35:22.392Z,9.33
2018-07-23T08:37:50.729Z,9.40
2018-07-23T08:40:19.037Z,9.37
2018-07-23T08:42:47.363Z,9.07
2018-07-23T08:45:15.687Z,8.43
2018-07-23T08:47:44.028Z,9.63
2018-07-23T08:50:12.048Z,9.50
2018-07-23T08:52:40.322Z,8.73
2018-07-23T08:55:08.620Z,9.40
2018-07-23T08:57:36.914Z,9.83
2018-07-23T09:00:05.437Z,8.90
2018-07-23T09:02:33.461Z,9.43
2018-07-23T09:05:01.779Z,8.97
2018-07-23T09:07:30.075Z,8.27
2018-07-23T09:09:58.381Z,8.13
2018-07-23T09:12:26.766Z,9.20
2018-07-23T09:14:55.349Z,8.03
2018-07-23T09:17:23.662Z,7.87
2018-07-23T09:19:51.982Z,9.53
2018-07-23T09:22:20.313Z,8.77
2018-07-23T09:24:48.619Z,8.57
2018-07-23T09:27:16.957Z,9.03
2018-07-23T09:29:44.952Z,9.13
2018-07-23T09:32:13.313Z,8.43
2018-07-23T09:34:41.331Z,7.97
2018-07-23T09:37:09.701Z,8.57
2018-07-23T09:39:37.701Z,7.70
2018-07-23T09:42:06.053Z,8.07
2018-07-23T09:44:34.331Z,8.10
2018-07-23T09:47:02.688Z,8.63
2018-07-23T09:49:31.005Z,8.70
2018-07-23T09:51:59.324Z,8.97
2018-07-23T09:54:27.637Z,7.93
2018-07-23T09:56:55.942Z,7.70
2018-07-23T09:59:24.255Z,8.47
2018-07-23T10:01:52.565Z,8.00
2018-07-23T10:04:20.889Z,7.03
2018-07-23T10:06:49.195Z,7.80
2018-07-23T10:09:17.505Z,7.90
2018-07-23T10:11:45.836Z,8.43
2018-07-23T10:14:14.164Z,7.83
2018-07-23T10:16:42.465Z,8.13
2018-07-23T10:19:10.769Z,7.60
2018-07-23T10:21:39.109Z,8.87
2018-07-23T10:24:07.414Z,8.40
2018-07-23T10:26:35.737Z,7.47
2018-07-23T10:29:03.747Z,7.10
2018-07-23T10:31:32.045Z,8.00
2018-07-23T10:34:00.349Z,8.50
2018-07-23T10:36:28.625Z,8.30
2018-07-23T10:38:56.913Z,7.10
2018-07-23T10:41:25.223Z,7.90
2018-07-23T10:43:53.247Z,24.20
2018-07-23T10:46:21.538Z,10.57
2018-07-23T10:48:49.840Z,8.00
2018-07-23T10:51:18.225Z,48.77
2018-07-23T10:53:46.497Z,19.47
2018-07-23T10:56:14.532Z,11.63
2018-07-23T10:58:42.804Z,7.77
2018-07-23T11:01:11.118Z,7.27
2018-07-23T11:03:39.403Z,6.93
2018-07-23T11:06:07.713Z,7.13
2018-07-23T11:08:35.981Z,7.13
2018-07-23T11:11:04.291Z,7.10
2018-07-23T11:13:32.537Z,7.57
2018-07-23T11:16:00.829Z,7.43
2018-07-23T11:18:29.163Z,8.20
2018-07-23T11:20:57.427Z,7.10
2018-07-23T11:23:25.471Z,7.53
2018-07-23T11:25:53.762Z,6.80
2018-07-23T11:28:22.032Z,6.37
2018-07-23T11:30:50.335Z,6.77
2018-07-23T11:33:18.637Z,6.62
2018-07-23T11:35:46.966Z,7.13
2018-07-23T11:38:15.273Z,7.27
2018-07-23T11:40:43.579Z,7.40
2018-07-23T11:43:11.853Z,6.80
2018-07-23T11:45:40.155Z,7.27
2018-07-23T11:48:08.162Z,6.37
2018-07-23T11:50:36.445Z,6.77
2018-07-23T11:53:04.749Z,7.23
2018-07-23T11:55:33.255Z,6.77
2018-07-23T11:58:01.547Z,8.27
2018-07-23T12:00:29.848Z,7.70
2018-07-23T12:02:58.124Z,7.17
2018-07-23T12:05:26.423Z,7.20
2018-07-23T12:07:54.732Z,8.03
2018-07-23T12:10:23.024Z,8.10
2018-07-23T12:12:51.318Z,7.73
2018-07-23T12:15:19.588Z,7.57
2018-07-23T12:17:47.605Z,7.80
2018-07-23T12:20:15.884Z,7.37
2018-07-23T12:22:44.177Z,7.77
2018-07-23T12:25:12.460Z,8.40
2018-07-23T12:27:40.753Z,7.93
2018-07-23T12:30:08.787Z,7.83
2018-07-23T12:32:37.080Z,7.77
2018-07-23T12:35:05.598Z,7.23
2018-07-23T12:37:33.928Z,7.77
2018-07-23T12:40:02.270Z,7.70
2018-07-23T12:42:30.521Z,7.93
2018-07-23T12:44:58.832Z,7.77
2018-07-23T12:47:26.891Z,8.33
2018-07-23T12:49:54.850Z,7.33
2018-07-23T12:52:23.146Z,7.20
2018-07-23T12:54:51.448Z,7.30
2018-07-23T12:57:19.480Z,7.63
2018-07-23T12:59:47.788Z,7.63
2018-07-23T13:02:16.066Z,12.87
2018-07-23T13:04:44.444Z,15.07
2018-07-23T13:07:12.786Z,7.50
2018-07-23T13:09:41.098Z,17.77
2018-07-23T13:12:09.399Z,46.47
2018-07-23T13:14:37.754Z,27.30
2018-07-23T13:17:06.041Z,11.13
2018-07-23T13:19:34.038Z,7.30
2018-07-23T13:22:02.356Z,7.27
2018-07-23T13:24:30.663Z,7.40
2018-07-23T13:26:58.996Z,7.00
2018-07-23T13:29:27.294Z,7.27
2018-07-23T13:31:55.329Z,7.53
2018-07-23T13:34:23.636Z,7.40
2018-07-23T13:36:51.964Z,6.73
2018-07-23T13:39:20.252Z,6.77
2018-07-23T13:41:48.592Z,7.07
2018-07-23T13:44:16.886Z,6.60
2018-07-23T13:46:45.162Z,6.33
2018-07-23T13:49:13.452Z,6.67
2018-07-23T13:51:41.763Z,7.00
2018-07-23T13:54:10.129Z,6.77
2018-07-23T13:56:38.443Z,6.70
2018-07-23T13:59:06.755Z,6.90
2018-07-23T14:01:35.135Z,6.53
2018-07-23T14:04:03.487Z,6.70
2018-07-23T14:06:31.827Z,7.13
2018-07-23T14:09:00.146Z,7.20
2018-07-23T14:11:28.456Z,7.30
2018-07-23T14:13:56.784Z,7.67
2018-07-23T14:16:24.826Z,7.73
2018-07-23T14:18:53.126Z,7.40
2018-07-23T14:21:21.470Z,7.03
2018-07-23T14:23:49.886Z,6.63
2018-07-23T14:26:18.180Z,7.73
2018-07-23T14:28:46.516Z,7.53
2018-07-23T14:31:14.855Z,7.53
2018-07-23T14:33:42.895Z,7.47
2018-07-23T14:36:11.227Z,7.30
2018-07-23T14:38:39.557Z,7.20
2018-07-23T14:41:07.857Z,7.37
2018-07-23T14:43:36.534Z,7.03
2018-07-23T14:46:04.860Z,7.53
2018-07-23T14:48:33.266Z,6.90
2018-07-23T14:51:01.610Z,7.33
2018-07-23T14:53:29.895Z,7.20
2018-07-23T14:55:58.214Z,6.87
2018-07-23T14:58:26.530Z,7.10
2018-07-23T15:00:54.851Z,6.73
2018-07-23T15:03:23.177Z,6.90
2018-07-23T15:05:51.463Z,7.47
2018-07-23T15:08:19.880Z,7.10
2018-07-23T15:10:48.212Z,6.47
2018-07-23T15:13:16.745Z,6.37
2018-07-23T15:15:45.772Z,6.37
2018-07-23T15:18:14.204Z,6.17
2018-07-23T15:20:42.528Z,6.63
2018-07-23T15:23:10.832Z,6.53
2018-07-23T15:25:38.892Z,6.93
2018-07-23T15:28:07.576Z,6.40
2018-07-23T15:30:35.858Z,5.83
2018-07-23T15:33:04.201Z,6.40
2018-07-23T15:35:32.503Z,6.10
2018-07-23T15:38:00.819Z,6.07
2018-07-23T15:40:29.153Z,6.20
2018-07-23T15:42:57.441Z,5.90
2018-07-23T15:45:25.970Z,6.27
2018-07-23T15:47:54.092Z,5.80
2018-07-23T15:50:22.458Z,6.33
2018-07-23T15:52:50.476Z,6.80
2018-07-23T15:55:18.803Z,6.20
2018-07-23T15:57:47.085Z,6.43
2018-07-23T16:00:15.407Z,6.17
2018-07-23T16:02:43.715Z,6.40
2018-07-23T16:05:12.314Z,6.70
2018-07-23T16:07:40.601Z,6.10
2018-07-23T16:10:08.904Z,6.03
2018-07-23T16:12:37.170Z,6.23
2018-07-23T16:15:06.271Z,6.43
2018-07-23T16:17:34.550Z,6.30
2018-07-23T16:20:02.867Z,6.30
2018-07-23T16:22:30.886Z,6.20
2018-07-23T16:24:59.198Z,5.97
2018-07-23T16:27:27.504Z,6.50
2018-07-23T16:29:55.514Z,6.30
2018-07-23T16:32:23.794Z,6.30
2018-07-23T16:34:52.096Z,6.60
2018-07-23T16:37:20.362Z,6.50
2018-07-23T16:39:48.702Z,6.43
2018-07-23T16:42:16.959Z,5.77
2018-07-23T16:44:45.259Z,6.17
2018-07-23T16:47:13.549Z,6.10
2018-07-23T16:49:41.855Z,5.90
2018-07-23T16:52:10.209Z,5.83
2018-07-23T16:54:38.484Z,5.73
2018-07-23T16:57:06.868Z,5.50
2018-07-23T16:59:35.180Z,6.07
2018-07-23T17:02:03.491Z,5.97
2018-07-23T17:04:31.820Z,5.70
2018-07-23T17:07:00.100Z,5.97
2018-07-23T17:09:28.424Z,5.43
2018-07-23T17:11:56.776Z,5.77
2018-07-23T17:14:25.048Z,5.50
2018-07-23T17:16:53.331Z,5.50
2018-07-23T17:19:21.612Z,5.40
2018-07-23T17:21:49.936Z,5.63
2018-07-23T17:24:18.230Z,5.37
2018-07-23T17:26:46.552Z,5.20
2018-07-23T17:29:14.856Z,5.67
2018-07-23T17:31:43.190Z,5.40
2018-07-23T17:34:11.493Z,5.97
2018-07-23T17:36:39.808Z,5.20
2018-07-23T17:39:10.636Z,5.27
2018-07-23T17:41:39.020Z,4.67
2018-07-23T17:44:07.338Z,4.27
2018-07-23T17:46:35.608Z,4.90
2018-07-23T17:49:04.174Z,4.63
2018-07-23T17:51:32.460Z,4.67
2018-07-23T17:54:00.744Z,4.90
2018-07-23T17:56:29.044Z,5.43
2018-07-23T17:58:57.552Z,4.80
2018-07-23T18:01:25.872Z,5.03
2018-07-23T18:03:54.256Z,4.87
2018-07-23T18:06:22.557Z,5.23
2018-07-23T18:08:50.854Z,5.00
2018-07-23T18:11:19.189Z,5.03
2018-07-23T18:13:47.484Z,4.80
2018-07-23T18:16:15.792Z,4.57
2018-07-23T18:18:44.158Z,4.57
2018-07-23T18:21:12.398Z,5.90
2018-07-23T18:23:40.710Z,4.90
2018-07-23T18:26:09.109Z,4.90
2018-07-23T18:28:37.435Z,4.80
2018-07-23T18:31:05.867Z,4.70
2018-07-23T18:33:34.145Z,4.40
2018-07-23T18:36:02.472Z,4.97
2018-07-23T18:38:30.933Z,4.90
2018-07-23T18:40:59.067Z,4.10
2018-07-23T18:43:27.356Z,4.30
2018-07-23T18:46:02.163Z,4.17
2018-07-23T18:49:34.714Z,4.37
2018-07-23T18:52:02.738Z,4.27
2018-07-23T18:54:31.867Z,4.50
2018-07-23T18:57:01.385Z,4.17
2018-07-23T18:59:29.742Z,4.40
2018-07-23T19:01:58.668Z,4.87
2018-07-23T19:04:27.001Z,4.00
2018-07-23T19:06:55.338Z,4.23
2018-07-23T19:09:24.637Z,4.50
2018-07-23T19:11:53.931Z,4.00
2018-07-23T19:14:22.362Z,4.30
2018-07-23T19:16:51.755Z,4.30
2018-07-23T19:19:19.807Z,3.83
2018-07-23T19:21:48.147Z,4.47
2018-07-23T19:24:16.433Z,4.37
2018-07-23T19:26:44.706Z,3.87
2018-07-23T19:29:12.987Z,4.07
2018-07-23T19:31:41.287Z,4.23
2018-07-23T19:34:09.636Z,4.17
2018-07-23T19:36:37.649Z,4.30
2018-07-23T19:39:09.589Z,4.10
2018-07-23T19:41:38.149Z,4.50
2018-07-23T19:44:06.932Z,4.50
2018-07-23T19:46:35.255Z,4.83
2018-07-23T19:49:03.663Z,4.30
2018-07-23T19:51:31.981Z,4.27
2018-07-23T19:54:00.395Z,4.70
2018-07-23T19:56:28.809Z,4.43
2018-07-23T19:58:57.198Z,4.60
2018-07-23T20:01:25.524Z,3.90
2018-07-23T20:03:53.918Z,4.40
2018-07-23T20:06:23.365Z,3.87
2018-07-23T20:08:52.885Z,4.53
2018-07-23T20:11:22.019Z,4.50
2018-07-23T20:13:50.239Z,4.47
2018-07-23T20:16:18.796Z,4.47
2018-07-23T20:18:47.142Z,4.00
2018-07-23T20:21:15.560Z,4.30
2018-07-23T20:23:44.176Z,3.97
2018-07-23T20:26:12.260Z,4.50
2018-07-23T20:28:40.307Z,4.30
2018-07-23T20:31:08.651Z,4.30
2018-07-23T20:33:37.042Z,4.40
2018-07-23T20:36:05.784Z,4.80
2018-07-23T20:38:34.516Z,5.00
2018-07-23T20:41:02.872Z,4.40
2018-07-23T20:43:32.071Z,4.37
2018-07-23T20:46:00.742Z,4.00
2018-07-23T20:48:29.048Z,4.17
2018-07-23T20:50:57.716Z,4.57
2018-07-23T20:53:26.065Z,4.07
2018-07-23T20:55:54.354Z,4.43
2018-07-23T20:58:23.062Z,4.77
2018-07-23T21:00:51.404Z,61.90
2018-07-23T21:03:19.744Z,21.13
2018-07-23T21:05:48.068Z,59.40
2018-07-23T21:08:16.361Z,22.97
2018-07-23T21:10:44.692Z,12.33
2018-07-23T21:13:12.980Z,9.07
2018-07-23T21:15:41.300Z,6.50
2018-07-23T21:18:09.835Z,6.27
2018-07-23T21:20:38.218Z,5.23
2018-07-23T21:23:06.880Z,5.20
2018-07-23T21:25:35.250Z,4.80
2018-07-23T21:28:03.599Z,5.17
2018-07-23T21:30:31.920Z,4.43
2018-07-23T21:33:00.246Z,4.93
2018-07-23T21:35:28.536Z,4.33
2018-07-23T21:37:56.815Z,4.60
2018-07-23T21:40:25.120Z,5.00
2018-07-23T21:42:53.129Z,5.03
2018-07-23T21:45:21.397Z,4.70
2018-07-23T21:47:49.684Z,5.23
2018-07-23T21:50:17.972Z,4.50
2018-07-23T21:52:46.304Z,5.10
2018-07-23T21:55:14.576Z,4.87
2018-07-23T21:57:42.888Z,4.57
2018-07-23T22:00:13.464Z,4.50
2018-07-23T22:02:41.742Z,4.83
2018-07-23T22:05:10.295Z,5.10
2018-07-23T22:07:38.587Z,5.63
2018-07-23T22:10:07.152Z,5.30
2018-07-23T22:12:35.504Z,5.17
2018-07-23T22:15:04.626Z,4.87
2018-07-23T22:17:32.901Z,5.23
2018-07-23T22:20:01.195Z,5.30
2018-07-23T22:22:29.474Z,5.07
2018-07-23T22:24:57.752Z,4.77
2018-07-23T22:27:26.024Z,5.47
2018-07-23T22:29:54.311Z,5.40
2018-07-23T22:32:22.594Z,5.47
2018-07-23T22:34:50.868Z,5.70
2018-07-23T22:37:19.232Z,5.37
2018-07-23T22:39:47.495Z,5.30
2018-07-23T22:42:15.808Z,5.37
2018-07-23T22:44:47.084Z,5.10
2018-07-23T22:47:15.376Z,5.47
2018-07-23T22:49:43.660Z,5.23
2018-07-23T22:52:11.926Z,5.23
2018-07-23T22:54:40.194Z,5.33
2018-07-23T22:57:08.542Z,5.43
2018-07-23T22:59:36.841Z,5.70
2018-07-23T23:02:05.110Z,5.60
2018-07-23T23:04:33.420Z,5.90
2018-07-23T23:07:01.733Z,6.07
2018-07-23T23:09:30.060Z,6.23
2018-07-23T23:11:58.334Z,6.33
2018-07-23T23:14:26.608Z,6.33
2018-07-23T23:16:54.616Z,5.50
2018-07-23T23:19:22.896Z,5.83
2018-07-23T23:21:51.168Z,5.80
2018-07-23T23:24:19.436Z,5.97
2018-07-23T23:26:47.731Z,6.30
2018-07-23T23:29:15.988Z,6.20
2018-07-23T23:31:44.020Z,6.53
2018-07-23T23:34:12.298Z,6.50
2018-07-23T23:36:40.574Z,6.23
2018-07-23T23:39:10.024Z,6.63
2018-07-23T23:41:38.270Z,6.43
2018-07-23T23:44:06.588Z,5.80
2018-07-23T23:46:34.920Z,5.77
2018-07-23T23:49:03.198Z,5.47
2018-07-23T23:51:31.581Z,5.50
2018-07-23T23:54:00.548Z,5.83
2018-07-23T23:56:28.594Z,5.30
2018-07-23T23:58:56.916Z,5.60
